Time;durP1;ratioP1;P1;durP2;ratioP2;P2;SDS_P1;SDS_P2;PMS_P1;PMS_P2;Temp;Humidity;BMP_temperature;BMP_pressure;BME280_temperature;BME280_humidity;BME280_pressure;Samples;Min_cycle;Max_cycle;Signal;HPM_P1;HPM_P2
2021/04/09 00:01:40;;;;;;;19.52;12.15;;;5.50;65.00;;;;;;5051872;28;20047;-84
2021/04/09 00:04:06;;;;;;;22.05;11.55;;;5.50;65.00;;;;;;5052997;28;20021;-84
2021/04/09 00:06:32;;;;;;;19.13;12.50;;;5.50;64.90;;;;;;5052046;28;20054;-84
2021/04/09 00:08:58;;;;;;;19.67;11.60;;;5.50;64.90;;;;;;5051616;28;20131;-84
2021/04/09 00:11:23;;;;;;;21.80;11.45;;;5.50;65.40;;;;;;5056186;28;20020;-84
2021/04/09 00:13:49;;;;;;;22.75;12.73;;;5.50;65.80;;;;;;5071618;28;20031;-84
2021/04/09 00:16:14;;;;;;;20.27;11.57;;;5.50;65.10;;;;;;5071213;28;20020;-84
2021/04/09 00:18:43;;;;;;;19.30;11.13;;;5.50;65.30;;;;;;5071152;28;20013;-84
2021/04/09 00:21:08;;;;;;;21.50;13.05;;;5.40;65.20;;;;;;5071263;28;20024;-84
2021/04/09 00:23:34;;;;;;;20.73;11.82;;;5.40;65.20;;;;;;5071590;28;20024;-84
2021/04/09 00:26:01;;;;;;;17.67;11.30;;;5.50;65.40;;;;;;5071434;28;20522;-85
2021/04/09 00:28:26;;;;;;;21.83;11.82;;;5.40;66.00;;;;;;5072795;28;20062;-84
2021/04/09 00:30:52;;;;;;;19.60;12.27;;;5.40;65.50;;;;;;5071726;28;20020;-84
2021/04/09 00:33:17;;;;;;;21.77;12.35;;;5.40;65.50;;;;;;5071297;28;20071;-85
2021/04/09 00:35:43;;;;;;;22.63;13.25;;;5.40;65.60;;;;;;5071639;28;20060;-84
2021/04/09 00:38:10;;;;;;;19.08;12.68;;;5.40;65.40;;;;;;5071134;28;20111;-85
2021/04/09 00:40:36;;;;;;;21.65;12.48;;;5.40;65.70;;;;;;5071315;28;20016;-84
2021/04/09 00:43:03;;;;;;;19.00;11.88;;;5.40;65.50;;;;;;5072748;28;20074;-86
2021/04/09 00:45:28;;;;;;;19.58;12.05;;;5.40;65.80;;;;;;5072967;28;20091;-85
2021/04/09 00:47:54;;;;;;;22.95;13.57;;;5.40;65.70;;;;;;5071811;28;20129;-84
2021/04/09 00:50:19;;;;;;;24.35;13.98;;;5.40;65.80;;;;;;5071607;28;20044;-86
2021/04/09 00:52:46;;;;;;;23.35;13.48;;;5.40;66.40;;;;;;5072372;28;20025;-85
2021/04/09 00:55:13;;;;;;;23.35;11.40;;;5.40;65.90;;;;;;5071019;28;20398;-85
2021/04/09 00:57:42;;;;;;;24.65;11.98;;;5.40;65.80;;;;;;5071189;28;20518;-85
2021/04/09 01:00:10;;;;;;;26.15;13.68;;;5.30;66.30;;;;;;5071134;28;20056;-85
2021/04/09 01:02:37;;;;;;;27.48;13.80;;;5.30;66.10;;;;;;5054566;28;20453;-85
2021/04/09 01:05:05;;;;;;;21.45;13.07;;;5.30;66.00;;;;;;5073062;28;20117;-85
2021/04/09 01:07:31;;;;;;;20.77;12.38;;;5.30;66.30;;;;;;5070145;28;20115;-86
2021/04/09 01:09:56;;;;;;;23.60;12.82;;;5.30;66.00;;;;;;5071042;28;20025;-84
2021/04/09 01:12:22;;;;;;;20.33;13.02;;;5.30;65.90;;;;;;5070716;28;20012;-84
2021/04/09 01:14:48;;;;;;;19.83;13.23;;;5.30;66.00;;;;;;5072517;28;20395;-84
2021/04/09 01:17:26;;;;;;;18.77;12.43;;;5.30;66.10;;;;;;5070238;28;20013;-84
2021/04/09 01:20:16;;;;;;;27.05;13.60;;;5.30;66.20;;;;;;5070808;28;20112;-84
2021/04/09 01:22:55;;;;;;;22.73;13.13;;;5.30;66.30;;;;;;5071016;28;20455;-83
2021/04/09 01:25:45;;;;;;;25.63;13.73;;;5.30;66.40;;;;;;5070844;28;20024;-84
2021/04/09 01:28:23;;;;;;;26.58;13.55;;;5.20;66.50;;;;;;5072113;28;20023;-84
2021/04/09 01:30:52;;;;;;;26.70;13.00;;;5.20;67.00;;;;;;5070943;28;20082;-84
2021/04/09 01:33:29;;;;;;;22.65;13.25;;;5.20;66.80;;;;;;5070680;28;20119;-84
2021/04/09 01:36:01;;;;;;;26.40;13.25;;;5.20;66.80;;;;;;5073254;28;20020;-84
2021/04/09 01:38:31;;;;;;;23.45;13.30;;;5.20;68.50;;;;;;5071875;28;20476;-79
2021/04/09 01:40:58;;;;;;;22.65;14.73;;;5.20;67.10;;;;;;5076101;28;20033;-81
2021/04/09 01:43:25;;;;;;;23.02;13.60;;;5.20;67.30;;;;;;5075428;28;20016;-80
2021/04/09 01:45:51;;;;;;;22.17;13.73;;;5.20;67.00;;;;;;5075345;28;20012;-80
2021/04/09 01:48:20;;;;;;;23.95;13.65;;;5.20;67.20;;;;;;5081435;28;20117;-81
2021/04/09 01:50:47;;;;;;;19.45;12.40;;;5.20;67.10;;;;;;5071271;28;20329;-85
2021/04/09 01:53:14;;;;;;;23.58;14.60;;;5.20;67.20;;;;;;5069979;28;20052;-82
2021/04/09 01:55:47;;;;;;;22.92;13.95;;;5.20;67.10;;;;;;5073106;28;20024;-83
2021/04/09 01:58:14;;;;;;;27.10;12.77;;;5.20;67.20;;;;;;5074007;28;20017;-84
2021/04/09 02:00:40;;;;;;;22.42;14.50;;;5.20;67.00;;;;;;5074051;28;20032;-85
2021/04/09 02:03:07;;;;;;;23.65;14.00;;;5.20;67.10;;;;;;5073947;28;20119;-85
2021/04/09 02:05:33;;;;;;;26.33;14.73;;;5.20;67.10;;;;;;5074114;28;20024;-84
2021/04/09 02:08:02;;;;;;;26.73;14.48;;;5.20;67.00;;;;;;5073665;28;20361;-85
2021/04/09 02:10:28;;;;;;;27.33;14.77;;;5.20;66.90;;;;;;5073513;28;20017;-85
2021/04/09 02:12:55;;;;;;;24.02;13.82;;;5.30;66.90;;;;;;5073965;28;20025;-85
2021/04/09 02:15:23;;;;;;;22.38;14.05;;;5.30;66.90;;;;;;5073753;28;20448;-85
2021/04/09 02:17:49;;;;;;;26.23;14.55;;;5.20;66.80;;;;;;5073927;28;20052;-86
2021/04/09 02:20:17;;;;;;;22.40;13.73;;;5.20;66.80;;;;;;5073625;28;20118;-85
2021/04/09 02:22:44;;;;;;;25.05;13.52;;;5.20;66.90;;;;;;5074021;28;20043;-85
2021/04/09 02:25:12;;;;;;;19.52;12.63;;;5.20;66.90;;;;;;5073813;28;20024;-84
2021/04/09 02:27:38;;;;;;;25.92;13.77;;;5.30;67.00;;;;;;5073673;28;20025;-84
2021/04/09 02:30:09;;;;;;;27.13;14.50;;;5.30;67.40;;;;;;5073778;28;20027;-84
2021/04/09 02:32:34;;;;;;;19.90;13.27;;;5.30;67.20;;;;;;5074682;28;20116;-85
2021/04/09 02:35:00;;;;;;;27.75;14.10;;;5.30;67.40;;;;;;5073736;28;20044;-84
2021/04/09 02:37:26;;;;;;;21.98;13.50;;;5.30;67.30;;;;;;5073665;28;20070;-83
2021/04/09 02:40:04;;;;;;;26.27;13.10;;;5.30;67.40;;;;;;5073393;28;20035;-84
2021/04/09 02:42:29;;;;;;;27.40;13.98;;;5.30;67.40;;;;;;5073099;28;20368;-84
2021/04/09 02:44:55;;;;;;;28.95;15.80;;;5.30;67.50;;;;;;5074105;28;20540;-82
2021/04/09 02:47:26;;;;;;;22.58;13.93;;;5.30;67.40;;;;;;5075118;28;20019;-82
2021/04/09 02:50:00;;;;;;;27.77;15.73;;;5.30;67.30;;;;;;5073074;28;20419;-83
2021/04/09 02:52:31;;;;;;;25.23;14.95;;;5.30;67.50;;;;;;5073846;28;20373;-84
2021/04/09 02:55:00;;;;;;;30.77;15.85;;;5.30;67.50;;;;;;5073337;28;20028;-85
2021/04/09 02:57:30;;;;;;;26.90;15.07;;;5.30;67.90;;;;;;5072729;28;20012;-85
2021/04/09 02:59:57;;;;;;;28.63;15.77;;;5.30;67.70;;;;;;5072858;28;20078;-84
2021/04/09 03:02:25;;;;;;;26.60;15.15;;;5.30;68.30;;;;;;5072667;28;20021;-84
2021/04/09 03:04:52;;;;;;;30.90;16.83;;;5.30;67.70;;;;;;5072774;28;20070;-86
2021/04/09 03:07:18;;;;;;;27.38;14.95;;;5.30;67.70;;;;;;5071321;28;20091;-84
2021/04/09 03:09:44;;;;;;;26.58;14.98;;;5.30;67.80;;;;;;5072597;28;20016;-85
2021/04/09 03:12:19;;;;;;;27.52;15.10;;;5.30;67.90;;;;;;5072564;28;20017;-83
2021/04/09 03:14:49;;;;;;;30.90;15.95;;;5.30;68.00;;;;;;5072632;28;20506;-84
2021/04/09 03:17:19;;;;;;;27.10;14.55;;;5.40;68.10;;;;;;5073061;28;20071;-84
2021/04/09 03:19:45;;;;;;;25.42;14.35;;;5.30;68.10;;;;;;5072489;28;20368;-84
2021/04/09 03:22:11;;;;;;;30.63;16.90;;;5.30;68.20;;;;;;5072379;28;20024;-84
2021/04/09 03:24:37;;;;;;;30.88;14.98;;;5.30;68.30;;;;;;5072260;28;20028;-83
2021/04/09 03:27:05;;;;;;;26.92;14.07;;;5.30;68.40;;;;;;5072533;28;20015;-84
2021/04/09 03:29:31;;;;;;;31.00;15.77;;;5.30;68.70;;;;;;5072414;28;20365;-85
2021/04/09 03:31:56;;;;;;;35.05;15.60;;;5.30;68.70;;;;;;5072445;28;20023;-85
2021/04/09 03:34:22;;;;;;;27.50;15.60;;;5.30;68.80;;;;;;5072229;28;20020;-84
2021/04/09 03:36:48;;;;;;;30.15;14.50;;;5.30;69.50;;;;;;5072664;28;20412;-85
2021/04/09 03:39:13;;;;;;;29.40;16.50;;;5.30;69.00;;;;;;5072568;28;20013;-84
2021/04/09 03:41:39;;;;;;;26.38;16.30;;;5.30;69.30;;;;;;5072111;28;20031;-84
2021/04/09 03:44:05;;;;;;;27.88;14.80;;;5.30;69.20;;;;;;5072384;28;20020;-84
2021/04/09 03:46:30;;;;;;;25.73;14.93;;;5.30;69.40;;;;;;5071627;28;20058;-84
2021/04/09 03:48:56;;;;;;;33.00;16.75;;;5.30;69.80;;;;;;5072048;28;20449;-84
2021/04/09 03:51:22;;;;;;;24.80;14.77;;;5.30;69.60;;;;;;5071581;28;20032;-84
2021/04/09 03:53:47;;;;;;;30.88;15.73;;;5.30;69.60;;;;;;5071932;28;20020;-84
2021/04/09 03:56:13;;;;;;;26.60;14.38;;;5.30;69.90;;;;;;5072073;28;20024;-85
2021/04/09 03:58:38;;;;;;;26.95;14.65;;;5.30;69.60;;;;;;5071718;28;20031;-84
2021/04/09 04:01:04;;;;;;;27.63;14.10;;;5.30;70.00;;;;;;5071757;28;20120;-85
2021/04/09 04:03:29;;;;;;;25.25;15.63;;;5.30;70.80;;;;;;5071472;28;20017;-84
2021/04/09 04:05:55;;;;;;;23.90;14.20;;;5.30;70.00;;;;;;5072073;28;20078;-85
2021/04/09 04:08:20;;;;;;;25.52;14.05;;;5.30;70.20;;;;;;5071094;28;20417;-85
2021/04/09 04:10:46;;;;;;;22.65;13.85;;;5.30;70.20;;;;;;5071851;28;20024;-83
2021/04/09 04:13:12;;;;;;;23.42;13.00;;;5.30;71.40;;;;;;5071891;28;20335;-85
2021/04/09 04:15:37;;;;;;;28.55;13.45;;;5.30;70.00;;;;;;5072297;28;20056;-85
2021/04/09 04:18:03;;;;;;;20.23;12.60;;;5.30;69.80;;;;;;5071122;28;20024;-84
2021/04/09 04:20:28;;;;;;;24.92;13.88;;;5.30;70.00;;;;;;5071794;28;20032;-85
2021/04/09 04:22:54;;;;;;;22.58;12.98;;;5.30;69.90;;;;;;5071684;28;20330;-84
2021/04/09 04:25:20;;;;;;;23.55;13.75;;;5.30;69.80;;;;;;5072261;28;20013;-84
2021/04/09 04:27:45;;;;;;;22.25;13.50;;;5.30;69.80;;;;;;5075195;28;20035;-83
2021/04/09 04:30:11;;;;;;;23.58;13.13;;;5.30;69.90;;;;;;5072146;28;20077;-84
2021/04/09 04:32:37;;;;;;;22.17;13.00;;;5.30;69.90;;;;;;5071726;28;20062;-83
2021/04/09 04:35:03;;;;;;;21.23;12.15;;;5.30;69.80;;;;;;5071855;28;20021;-85
2021/04/09 04:37:29;;;;;;;21.83;13.10;;;5.30;69.90;;;;;;5071622;28;20017;-84
2021/04/09 04:39:54;;;;;;;22.38;13.07;;;5.30;69.90;;;;;;5072835;28;20036;-83
2021/04/09 04:42:20;;;;;;;22.40;13.40;;;5.30;70.00;;;;;;5071864;28;20024;-83
2021/04/09 04:44:45;;;;;;;23.38;13.45;;;5.30;70.00;;;;;;5072414;28;20104;-84
2021/04/09 04:47:11;;;;;;;22.65;12.95;;;5.30;70.00;;;;;;5072471;28;20116;-84
2021/04/09 04:49:36;;;;;;;24.40;13.63;;;5.30;70.10;;;;;;5071314;28;20059;-80
2021/04/09 04:52:02;;;;;;;22.73;14.38;;;5.30;70.10;;;;;;5070971;28;20070;-81
2021/04/09 04:54:28;;;;;;;24.00;14.30;;;5.30;70.30;;;;;;5072231;28;20368;-84
2021/04/09 04:56:53;;;;;;;21.65;12.75;;;5.30;70.50;;;;;;5071190;28;20078;-83
2021/04/09 04:59:19;;;;;;;27.98;14.63;;;5.30;70.40;;;;;;5071201;28;20019;-83
2021/04/09 05:01:44;;;;;;;21.50;12.90;;;5.20;71.10;;;;;;5070752;28;20123;-83
2021/04/09 05:04:10;;;;;;;24.85;14.35;;;5.20;70.50;;;;;;5071356;28;20091;-83
2021/04/09 05:06:35;;;;;;;20.90;13.10;;;5.20;70.80;;;;;;5071715;28;20016;-84
2021/04/09 05:09:01;;;;;;;21.30;13.68;;;5.20;70.70;;;;;;5070666;28;20048;-84
2021/04/09 05:11:27;;;;;;;23.60;13.70;;;5.20;70.80;;;;;;5070768;28;20017;-86
2021/04/09 05:13:52;;;;;;;23.40;13.05;;;5.20;70.90;;;;;;5071063;28;20016;-84
2021/04/09 05:16:18;;;;;;;20.40;13.13;;;5.20;71.10;;;;;;5071040;28;20111;-84
2021/04/09 05:18:44;;;;;;;29.17;15.25;;;5.20;71.10;;;;;;5070807;28;20058;-84
2021/04/09 05:21:10;;;;;;;22.10;12.88;;;5.20;71.20;;;;;;5071299;28;20453;-85
2021/04/09 05:23:36;;;;;;;23.98;13.55;;;5.20;71.20;;;;;;5070896;28;20016;-85
2021/04/09 05:26:01;;;;;;;22.13;12.55;;;5.20;71.30;;;;;;5071206;28;20031;-84
2021/04/09 05:28:27;;;;;;;23.70;12.98;;;5.20;71.50;;;;;;5070817;28;20024;-84
2021/04/09 05:30:53;;;;;;;21.45;12.73;;;5.20;71.80;;;;;;5074244;28;20061;-84
2021/04/09 05:33:18;;;;;;;20.88;13.65;;;5.20;71.40;;;;;;5074729;28;20024;-84
2021/04/09 05:35:46;;;;;;;24.13;14.23;;;5.20;71.60;;;;;;5074856;28;20542;-85
2021/04/09 05:38:11;;;;;;;26.42;14.15;;;5.20;71.50;;;;;;5074607;28;20116;-83
2021/04/09 05:40:37;;;;;;;25.08;12.40;;;5.20;71.50;;;;;;5074903;28;20122;-84
2021/04/09 05:43:03;;;;;;;21.30;10.40;;;5.20;71.60;;;;;;5076091;28;20020;-84
2021/04/09 05:45:29;;;;;;;21.80;13.20;;;5.30;73.10;;;;;;5074175;28;20131;-83
2021/04/09 05:48:00;;;;;;;20.92;13.40;;;5.30;71.50;;;;;;5074344;28;20012;-82
2021/04/09 05:50:29;;;;;;;26.10;14.93;;;5.40;71.30;;;;;;5075852;28;20021;-83
2021/04/09 05:52:55;;;;;;;22.35;13.45;;;5.40;71.40;;;;;;5074046;28;20017;-83
2021/04/09 05:55:20;;;;;;;21.73;13.18;;;5.40;71.30;;;;;;5074382;28;20017;-83
2021/04/09 05:57:46;;;;;;;25.77;13.43;;;5.50;70.90;;;;;;5074234;28;20021;-83
2021/04/09 06:00:13;;;;;;;24.30;14.27;;;5.50;70.80;;;;;;5074258;28;20032;-83
2021/04/09 06:02:39;;;;;;;19.20;11.93;;;5.60;70.70;;;;;;5073954;28;20452;-82
2021/04/09 06:05:05;;;;;;;23.20;12.95;;;5.60;71.00;;;;;;5073971;28;20026;-83
2021/04/09 06:07:31;;;;;;;25.73;13.40;;;5.70;70.40;;;;;;5073717;28;20048;-82
2021/04/09 06:09:56;;;;;;;19.55;12.27;;;5.70;71.10;;;;;;5074084;28;20021;-83
2021/04/09 06:12:22;;;;;;;22.67;12.75;;;5.80;71.00;;;;;;5067160;28;20021;-83
2021/04/09 06:14:47;;;;;;;22.30;13.13;;;5.90;70.20;;;;;;5064657;28;20028;-84
2021/04/09 06:17:13;;;;;;;22.83;13.00;;;5.90;69.50;;;;;;5062320;28;20368;-82
2021/04/09 06:19:38;;;;;;;20.85;12.57;;;6.00;69.60;;;;;;5064145;28;20024;-83
2021/04/09 06:22:05;;;;;;;28.33;13.98;;;6.10;69.50;;;;;;5061295;28;20032;-83
2021/04/09 06:24:30;;;;;;;20.75;12.75;;;6.20;69.00;;;;;;5062322;28;20464;-84
2021/04/09 06:26:56;;;;;;;27.13;11.63;;;6.20;69.50;;;;;;5063011;28;20044;-83
2021/04/09 06:29:22;;;;;;;18.00;11.80;;;6.30;68.70;;;;;;5063665;28;20016;-82
2021/04/09 06:31:47;;;;;;;25.50;13.07;;;6.40;68.40;;;;;;5061411;28;20033;-83
2021/04/09 06:34:13;;;;;;;16.83;10.68;;;6.50;68.20;;;;;;5059440;28;20020;-83
2021/04/09 06:36:39;;;;;;;20.83;11.85;;;6.60;68.20;;;;;;5069249;28;20024;-82
2021/04/09 06:39:05;;;;;;;19.60;10.88;;;6.60;68.00;;;;;;5074184;28;20020;-85
2021/04/09 06:41:30;;;;;;;20.58;13.00;;;6.60;67.60;;;;;;5075930;28;20441;-82
2021/04/09 06:43:59;;;;;;;19.85;11.93;;;6.70;67.40;;;;;;5074358;28;20021;-84
2021/04/09 06:46:28;;;;;;;19.27;12.82;;;6.70;67.50;;;;;;5074033;28;20022;-85
2021/04/09 06:48:55;;;;;;;25.08;14.38;;;6.70;67.00;;;;;;5073267;28;20016;-85
2021/04/09 06:51:22;;;;;;;19.90;12.38;;;6.80;67.30;;;;;;5071153;28;20063;-85
2021/04/09 06:53:48;;;;;;;21.55;13.07;;;6.80;67.30;;;;;;5073228;28;20492;-85
2021/04/09 06:56:15;;;;;;;16.45;11.27;;;6.80;67.50;;;;;;5073544;28;20017;-85
2021/04/09 06:58:44;;;;;;;22.75;13.25;;;6.90;67.50;;;;;;5069122;28;20474;-85
2021/04/09 07:01:10;;;;;;;24.00;12.17;;;6.90;67.70;;;;;;5053401;28;20319;-85
2021/04/09 07:03:37;;;;;;;20.23;11.57;;;7.00;67.10;;;;;;5053333;28;20489;-85
2021/04/09 07:06:03;;;;;;;21.88;13.10;;;7.00;67.20;;;;;;5053483;28;20028;-86
2021/04/09 07:08:29;;;;;;;16.50;11.75;;;7.00;67.20;;;;;;5053216;28;20045;-88
2021/04/09 07:10:57;;;;;;;24.33;11.43;;;7.10;67.40;;;;;;5057006;28;20146;-87
2021/04/09 07:13:25;;;;;;;19.58;12.00;;;7.00;67.60;;;;;;5056939;28;20033;-88
2021/04/09 07:15:56;;;;;;;19.55;10.15;;;7.10;67.30;;;;;;5055685;28;20021;-86
2021/04/09 07:19:04;;;;;;;18.77;12.30;;;7.10;68.10;;;;;;5058792;28;20095;-87
2021/04/09 07:21:32;;;;;;;15.75;11.90;;;7.20;67.60;;;;;;5055367;28;20024;-86
2021/04/09 07:24:13;;;;;;;18.33;10.65;;;7.30;67.50;;;;;;5054343;28;20013;-85
2021/04/09 07:26:42;;;;;;;18.08;10.70;;;7.40;67.30;;;;;;5053748;28;20035;-83
2021/04/09 07:29:30;;;;;;;18.40;11.60;;;7.40;67.90;;;;;;5054790;28;20020;-85
2021/04/09 07:32:15;;;;;;;19.75;9.93;;;7.60;67.20;;;;;;5053889;28;20031;-84
2021/04/09 07:34:59;;;;;;;19.35;11.10;;;7.70;67.10;;;;;;5053809;28;20439;-85
2021/04/09 07:37:27;;;;;;;20.15;11.23;;;7.90;66.80;;;;;;5053993;28;20024;-85
2021/04/09 07:40:00;;;;;;;15.77;9.88;;;8.10;66.70;;;;;;5053948;28;20407;-85
2021/04/09 07:42:34;;;;;;;17.63;10.80;;;8.20;66.10;;;;;;5053479;28;20009;-86
2021/04/09 07:45:05;;;;;;;16.92;11.15;;;8.30;65.00;;;;;;5053724;28;20021;-86
2021/04/09 07:47:30;;;;;;;15.40;10.32;;;8.40;65.00;;;;;;5053104;28;20075;-86
2021/04/09 07:50:09;;;;;;;17.20;10.00;;;8.40;64.70;;;;;;5054796;28;20025;-85
2021/04/09 07:52:43;;;;;;;20.10;10.98;;;8.50;64.70;;;;;;5052451;28;20013;-86
2021/04/09 07:55:20;;;;;;;18.80;10.75;;;8.70;65.00;;;;;;5054281;28;20021;-85
2021/04/09 07:57:47;;;;;;;18.42;11.15;;;8.70;64.70;;;;;;5053823;28;20449;-83
2021/04/09 08:00:15;;;;;;;17.75;10.65;;;8.80;64.40;;;;;;5072780;28;20029;-81
2021/04/09 08:02:41;;;;;;;16.20;9.60;;;8.90;63.80;;;;;;5075079;28;20081;-83
2021/04/09 08:05:07;;;;;;;21.08;10.98;;;8.90;64.80;;;;;;5069392;28;20023;-82
2021/04/09 08:07:35;;;;;;;15.10;9.73;;;9.00;63.60;;;;;;5057483;28;20041;-86
2021/04/09 08:10:01;;;;;;;15.75;9.85;;;9.00;63.50;;;;;;5052579;28;20037;-84
2021/04/09 08:12:32;;;;;;;18.90;10.38;;;9.10;63.70;;;;;;5052142;28;20025;-85
2021/04/09 08:15:14;;;;;;;14.77;9.20;;;9.10;64.00;;;;;;5051840;28;20488;-85
2021/04/09 08:17:40;;;;;;;15.88;9.70;;;9.20;64.20;;;;;;5051806;28;20382;-85
2021/04/09 08:20:14;;;;;;;16.17;9.90;;;9.20;64.20;;;;;;5051929;28;20061;-85
2021/04/09 08:22:41;;;;;;;15.90;10.20;;;9.30;64.10;;;;;;5051753;28;20357;-84
2021/04/09 08:25:09;;;;;;;14.32;8.60;;;9.30;64.00;;;;;;5052128;28;20013;-85
2021/04/09 08:27:37;;;;;;;15.68;9.93;;;9.20;63.90;;;;;;5052199;28;20032;-86
2021/04/09 08:30:04;;;;;;;16.65;10.00;;;9.20;64.00;;;;;;5051932;28;20385;-85
2021/04/09 08:32:31;;;;;;;18.20;9.68;;;9.20;64.40;;;;;;5052145;28;20017;-84
2021/04/09 08:34:58;;;;;;;20.75;11.90;;;9.20;64.60;;;;;;5052040;28;20017;-84
2021/04/09 08:37:24;;;;;;;16.25;10.30;;;9.30;64.90;;;;;;5057932;28;20025;-83
2021/04/09 08:39:51;;;;;;;20.48;9.70;;;9.40;64.20;;;;;;5051600;28;20032;-84
2021/04/09 08:42:17;;;;;;;12.57;8.05;;;9.60;63.90;;;;;;5051424;28;20027;-85
2021/04/09 08:44:44;;;;;;;15.18;8.95;;;9.70;63.50;;;;;;5051962;28;20013;-86
2021/04/09 08:47:20;;;;;;;18.40;10.63;;;9.80;64.00;;;;;;5052254;28;20025;-85
2021/04/09 08:49:47;;;;;;;13.27;8.10;;;10.00;63.10;;;;;;5051806;28;20017;-84
2021/04/09 08:52:15;;;;;;;12.98;9.00;;;10.10;62.30;;;;;;5052088;28;20025;-84
2021/04/09 08:54:55;;;;;;;13.68;9.00;;;10.30;62.30;;;;;;5052226;28;20025;-84
2021/04/09 08:57:34;;;;;;;17.23;8.98;;;10.40;61.80;;;;;;5052336;28;20044;-83
2021/04/09 09:00:06;;;;;;;15.40;9.70;;;10.60;61.80;;;;;;5051769;28;20013;-83
2021/04/09 09:02:44;;;;;;;14.32;9.05;;;10.80;60.20;;;;;;5051985;28;20017;-84
2021/04/09 09:05:12;;;;;;;12.90;7.88;;;10.90;60.10;;;;;;5054550;28;20023;-83
2021/04/09 09:07:43;;;;;;;14.38;8.38;;;11.00;60.10;;;;;;5055809;28;20103;-84
2021/04/09 09:10:28;;;;;;;15.13;8.20;;;11.30;59.70;;;;;;5055695;28;20056;-83
2021/04/09 09:13:02;;;;;;;14.88;7.97;;;11.40;59.50;;;;;;5055581;28;20086;-84
2021/04/09 09:15:46;;;;;;;15.20;8.75;;;11.50;58.20;;;;;;5055718;28;20116;-84
2021/04/09 09:18:33;;;;;;;13.68;7.95;;;11.50;58.30;;;;;;5055611;28;20507;-83
2021/04/09 09:21:10;;;;;;;11.65;7.05;;;11.50;58.50;;;;;;5055481;28;20033;-83
2021/04/09 09:23:45;;;;;;;11.18;6.53;;;11.70;58.30;;;;;;5055804;28;20021;-83
2021/04/09 09:26:40;;;;;;;18.30;7.65;;;11.70;58.10;;;;;;5055459;28;20070;-84
2021/04/09 09:29:27;;;;;;;14.98;7.70;;;11.80;57.90;;;;;;5055511;28;20469;-83
2021/04/09 09:31:59;;;;;;;16.10;8.60;;;11.90;57.80;;;;;;5057723;28;20041;-85
2021/04/09 09:34:25;;;;;;;12.60;8.23;;;12.10;57.70;;;;;;5055979;28;20021;-84
2021/04/09 09:37:09;;;;;;;14.23;8.02;;;12.20;56.70;;;;;;5055677;28;20055;-83
2021/04/09 09:39:48;;;;;;;14.50;6.78;;;12.30;56.90;;;;;;5055365;28;20025;-83
2021/04/09 09:42:26;;;;;;;16.75;7.75;;;12.40;58.10;;;;;;5055356;28;20021;-83
2021/04/09 09:44:52;;;;;;;14.23;8.18;;;12.40;56.80;;;;;;5055002;28;20017;-83
2021/04/09 09:47:20;;;;;;;12.55;7.70;;;12.40;56.60;;;;;;5055337;28;20053;-85
2021/04/09 09:50:05;;;;;;;18.65;7.47;;;12.40;56.30;;;;;;5055804;28;20454;-83
2021/04/09 09:53:05;;;;;;;13.38;6.90;;;12.40;56.40;;;;;;5055123;28;20025;-83
2021/04/09 09:55:32;;;;;;;13.48;7.70;;;12.40;56.40;;;;;;5055858;28;20031;-83
2021/04/09 09:58:16;;;;;;;16.33;6.68;;;12.50;56.10;;;;;;5054849;28;20021;-82
2021/04/09 10:00:44;;;;;;;10.63;6.25;;;12.60;55.70;;;;;;5054972;28;20392;-82
2021/04/09 10:03:38;;;;;;;12.50;6.97;;;12.60;56.40;;;;;;5056628;28;20024;-82
2021/04/09 10:06:12;;;;;;;14.35;7.35;;;12.60;55.40;;;;;;5057530;28;20040;-83
2021/04/09 10:08:38;;;;;;;10.20;6.57;;;12.60;56.30;;;;;;5056444;28;20044;-83
2021/04/09 10:11:07;;;;;;;11.75;6.40;;;12.60;55.50;;;;;;5056490;28;20020;-83
2021/04/09 10:13:40;;;;;;;15.00;7.10;;;12.60;57.00;;;;;;5055513;28;20040;-81
2021/04/09 10:16:19;;;;;;;13.95;7.38;;;12.60;54.90;;;;;;5055695;28;20124;-82
2021/04/09 10:18:54;;;;;;;15.57;7.60;;;12.60;55.40;;;;;;5054169;28;20103;-83
2021/04/09 10:21:38;;;;;;;12.05;7.55;;;12.50;55.00;;;;;;5054297;28;20140;-82
2021/04/09 10:24:08;;;;;;;12.60;7.72;;;12.60;55.70;;;;;;5054391;28;20021;-82
2021/04/09 10:26:55;;;;;;;13.77;8.15;;;12.80;55.80;;;;;;5054237;28;20064;-83
2021/04/09 10:29:27;;;;;;;12.20;6.25;;;13.00;55.30;;;;;;5054780;28;20423;-82
2021/04/09 10:31:57;;;;;;;14.18;7.20;;;13.10;56.30;;;;;;5064808;28;20086;-80
2021/04/09 10:34:25;;;;;;;12.95;7.18;;;13.10;53.90;;;;;;5043932;28;20049;-83
2021/04/09 10:36:50;;;;;;;13.32;7.20;;;13.20;53.60;;;;;;5055335;28;20028;-83
2021/04/09 10:39:19;;;;;;;10.63;5.60;;;13.40;54.20;;;;;;5054981;28;20373;-83
2021/04/09 10:41:47;;;;;;;13.77;7.13;;;13.60;54.60;;;;;;5053897;28;20017;-83
2021/04/09 10:44:18;;;;;;;9.25;5.35;;;13.60;53.10;;;;;;5055395;28;20017;-82
2021/04/09 10:46:45;;;;;;;11.18;6.25;;;13.60;55.80;;;;;;5053871;28;20369;-83
2021/04/09 10:49:19;;;;;;;15.02;6.28;;;13.60;51.40;;;;;;5053701;28;20028;-83
2021/04/09 10:51:51;;;;;;;13.55;6.22;;;13.50;52.60;;;;;;5055738;28;20021;-81
2021/04/09 10:54:28;;;;;;;8.90;5.32;;;13.60;54.40;;;;;;5053692;28;20044;-82
2021/04/09 10:57:08;;;;;;;11.45;5.30;;;13.90;53.80;;;;;;5055222;28;20450;-83
2021/04/09 10:59:38;;;;;;;10.20;5.97;;;14.10;54.70;;;;;;5054000;28;20028;-83
2021/04/09 11:02:06;;;;;;;9.18;5.32;;;14.20;51.40;;;;;;5053553;28;20514;-83
2021/04/09 11:04:34;;;;;;;10.20;5.97;;;14.20;51.40;;;;;;5053452;28;20021;-83
2021/04/09 11:07:05;;;;;;;8.35;5.28;;;14.30;51.40;;;;;;5053632;28;20442;-83
2021/04/09 11:09:42;;;;;;;10.40;4.35;;;14.50;51.40;;;;;;5064233;28;20021;-83
2021/04/09 11:12:28;;;;;;;6.90;4.15;;;14.70;50.60;;;;;;5053058;28;20024;-83
2021/04/09 11:15:12;;;;;;;10.00;4.35;;;14.60;50.70;;;;;;5052938;28;20028;-82
2021/04/09 11:17:40;;;;;;;8.13;4.28;;;14.60;50.70;;;;;;5053071;28;20017;-83
2021/04/09 11:20:27;;;;;;;16.10;3.97;;;14.60;49.20;;;;;;5052705;28;20025;-82
2021/04/09 11:23:03;;;;;;;7.90;2.80;;;14.50;50.40;;;;;;5052415;28;20070;-82
2021/04/09 11:25:37;;;;;;;5.25;3.03;;;14.60;50.80;;;;;;5052992;28;20112;-82
2021/04/09 11:28:04;;;;;;;7.47;2.85;;;14.70;48.60;;;;;;5051898;28;20051;-82
2021/04/09 11:30:36;;;;;;;5.47;2.85;;;14.80;49.40;;;;;;5053229;28;20106;-83
2021/04/09 11:33:03;;;;;;;5.32;3.15;;;14.90;49.30;;;;;;5053172;28;20032;-82
2021/04/09 11:35:35;;;;;;;7.35;3.47;;;14.80;50.80;;;;;;5052475;28;20017;-83
2021/04/09 11:38:06;;;;;;;12.48;3.78;;;14.80;49.30;;;;;;5052293;28;20021;-83
2021/04/09 11:40:41;;;;;;;6.13;3.30;;;14.80;48.00;;;;;;5053915;28;20027;-82
2021/04/09 11:43:08;;;;;;;10.13;3.75;;;14.90;48.20;;;;;;5052360;28;20120;-82
2021/04/09 11:45:51;;;;;;;7.18;2.72;;;14.90;49.60;;;;;;5052508;28;20016;-81
2021/04/09 11:48:28;;;;;;;5.60;2.40;;;15.30;46.80;;;;;;5052101;28;20329;-81
2021/04/09 11:51:14;;;;;;;5.80;2.50;;;15.30;48.50;;;;;;5051987;28;20021;-82
2021/04/09 11:53:41;;;;;;;7.13;3.63;;;15.40;48.20;;;;;;5051909;28;20020;-81
2021/04/09 11:56:06;;;;;;;7.03;2.95;;;15.50;49.40;;;;;;5052332;28;20472;-81
2021/04/09 11:58:41;;;;;;;6.05;2.70;;;15.40;48.60;;;;;;5052160;28;20017;-81
2021/04/09 12:01:07;;;;;;;7.57;3.00;;;15.10;47.90;;;;;;5053726;28;20025;-82
2021/04/09 12:03:37;;;;;;;12.27;3.75;;;15.10;49.20;;;;;;5052367;28;20013;-82
2021/04/09 12:06:17;;;;;;;6.47;3.10;;;15.20;47.70;;;;;;5052252;28;20025;-83
2021/04/09 12:08:44;;;;;;;4.60;2.22;;;15.30;46.70;;;;;;5051934;28;20048;-83
2021/04/09 12:11:12;;;;;;;5.25;2.05;;;15.40;45.90;;;;;;5051819;28;20103;-82
2021/04/09 12:13:42;;;;;;;4.80;2.40;;;15.60;46.90;;;;;;5052130;28;20029;-82
2021/04/09 12:16:08;;;;;;;6.22;2.40;;;15.90;49.60;;;;;;5051479;28;21000;-83
2021/04/09 12:18:34;;;;;;;6.13;3.08;;;16.20;46.70;;;;;;5051780;28;20102;-84
2021/04/09 12:20:59;;;;;;;6.75;2.50;;;16.30;45.40;;;;;;5051780;28;20051;-83
2021/04/09 12:23:26;;;;;;;6.05;2.60;;;16.30;47.90;;;;;;5052400;28;20361;-82
2021/04/09 12:25:55;;;;;;;7.57;3.15;;;16.10;46.60;;;;;;5055906;28;20021;-80
2021/04/09 12:28:20;;;;;;;5.78;3.80;;;16.20;46.30;;;;;;5058875;28;20471;-82
2021/04/09 12:30:46;;;;;;;43.30;6.45;;;16.40;45.90;;;;;;5051895;28;20116;-82
2021/04/09 12:33:11;;;;;;;52.78;8.90;;;16.60;45.30;;;;;;5051579;28;20338;-82
2021/04/09 12:35:37;;;;;;;46.50;6.32;;;16.60;47.00;;;;;;5051924;28;20468;-82
2021/04/09 12:38:02;;;;;;;4.97;2.47;;;16.50;45.30;;;;;;5055813;28;20040;-82
2021/04/09 12:40:28;;;;;;;9.65;3.22;;;16.40;43.80;;;;;;5053177;28;20029;-81
2021/04/09 12:42:53;;;;;;;10.57;3.20;;;16.30;43.30;;;;;;5052268;28;20028;-81
2021/04/09 12:45:19;;;;;;;6.63;2.97;;;16.10;45.70;;;;;;5054185;28;20464;-81
2021/04/09 12:47:45;;;;;;;8.38;2.22;;;16.20;44.90;;;;;;5052252;28;20009;-81
2021/04/09 12:50:11;;;;;;;5.65;2.10;;;16.20;45.10;;;;;;5052631;28;20021;-80